• Join FlightAware (Why Join?)
  • Login
  • US Flag 
Gobble Gobble! 
05:53AM EST


 

Airport Tracker/Info


-or-


 

Live Flight TrackerFlight Track Log ✈ DAL5971 ✈ 01-Sep-2013 ✈ KLGA - KBUF

Flight Track Log - Related Links

Times and Time Zones

All times are in EDT time to prevent confusion due to time zone crossing. See the DAL5971 flight status page for this flight to view local times or setup timezone preferences in your user account.

Time Position Orientation Groundspeed Altitude Reporting Facility
EDT Latitude Longitude Course Direction KTS MPH feet Rate Location/Type
12:17PM 40.7558 -73.8175 309° West 163 188 1,700  Level New York Center
12:18PM 40.8006 -73.7700 39° Northeast 189 217 3,100 1,800 Climbing New York Center
12:19PM 40.8669 -73.7867 349° North 227 261 5,400 2,580 Climbing New York Center
12:20PM 41.0207 -74.2605 306° West  Level FlightAware Approximate
12:20PM 40.9361 -73.8447 328° Northwest 255 293 8,300  Level New York Center
12:21PM 41.0859 -74.3583 313° West  Level FlightAware Approximate
12:21PM 40.9672 -73.9314 295° West 262 302 10,400  Level New York Center
12:22PM 41.1524 -74.4548 304° West  Level FlightAware Approximate
12:22PM 41.0142 -74.0436 299° West 297 342 12,400  Level New York Center
12:23PM 41.2121 -74.5590 309° West  Level FlightAware Approximate
12:23PM 41.0589 -74.1531 298° West 323 372 14,600  Level New York Center
12:24PM 41.0994 -74.2653 296° West 336 387 16,000 1,500 Climbing New York Center
12:25PM 41.1439 -74.3803 297° West 344 396 17,700 1,560 Climbing New York Center
12:26PM 41.1864 -74.4931 297° West 344 396 19,200 1,500 Climbing New York Center
12:27PM 41.2325 -74.6114 297° West 344 396 20,800 1,440 Climbing New York Center
12:28PM 41.2764 -74.7297 296° West 350 403 22,100 1,200 Climbing New York Center
12:29PM 41.3181 -74.8511 295° West 364 419 23,200 1,200 Climbing New York Center
12:30PM 41.3639 -74.9728 297° West 370 426 24,500 1,200 Climbing New York Center
12:31PM 41.4092 -75.1028 295° West 375 432 25,600 720 Climbing New York Center
12:32PM 41.4583 -75.2358 296° West 385 443 26,000 180 Climbing New York Center
12:33PM 41.5092 -75.3750 296° West 399 459 26,000  Level New York Center
12:34PM 41.5581 -75.5142 295° West 410 472 26,000  Level New York Center
12:35PM 41.6083 -75.6567 295° West 415 478 26,000  Level New York Center
12:36PM 41.6589 -75.7964 296° West 415 478 26,000  Level New York Center
12:37PM 41.7067 -75.9389 294° West 415 478 26,000  Level New York Center
12:38PM 41.7569 -76.0789 296° West 415 478 26,000  Level New York Center
12:39PM 41.8122 -76.2336 296° West 415 478 26,000  Level New York Center
12:40PM 41.8528 -76.3456 296° West 415 478 26,000  Level New York Center
12:41PM 41.9058 -76.5033 294° West 415 478 26,000  Level New York Center
12:44PM 42.0128 -76.8128 295° West 414 476 26,000  Level Cleveland Center
12:45PM 42.0611 -76.9556 295° West 414 476 26,000  Level Cleveland Center
12:46PM 42.1094 -77.0956 295° West 414 476 26,000  Level Cleveland Center
12:47PM 42.1572 -77.2386 294° West 414 476 26,000  Level Cleveland Center
12:48PM 42.2053 -77.3819 294° West 414 476 26,000  Level Cleveland Center
12:49PM 42.2508 -77.5228 294° West 414 476 26,000 -600 Level Cleveland Center
12:50PM 42.3003 -77.6661 295° West 414 476 24,900 -2,400 Descending Cleveland Center
12:51PM 42.3411 -77.7964 293° West 414 476 21,300 -3,900 Descending Cleveland Center
12:52PM 42.3903 -77.9350 296° West 414 476 17,100 -3,060 Descending Cleveland Center
12:53PM 42.4306 -78.0625 293° West 391 450 15,200 -1,920 Descending Cleveland Center
12:54PM 42.4686 -78.1822 293° West 371 427 13,300 -1,860 Descending Cleveland Center
12:55PM 42.5086 -78.2989 295° West 350 403 11,500 -1,560 Descending Cleveland Center
12:56PM 42.5867 -78.3497 334° Northwest 304 350 10,200 -1,440 Descending Cleveland Center
12:57PM 42.6681 -78.3636 353° North 289 333 8,700 -1,140 Descending Cleveland Center
12:58PM 42.7500 -78.3864 348° North 292 336 8,000 -360 Descending Cleveland Center
12:59PM 42.8378 -78.4031 352° North 292 336 8,000 -300 Level Cleveland Center
01:00PM 42.9114 -78.4372 341° North 292 336 7,400 -1,080 Descending Cleveland Center
01:01PM 42.9767 -78.4833 333° Northwest 274 315 5,900 -1,560 Descending Cleveland Center
01:03PM 43.0000 -78.6500 281° West 224 258 2,100 -1,320 Descending Buffalo TRACON
01:04PM 42.9667 -78.7000 228° Southwest 154 177 1,200 -840 Descending Buffalo TRACON